Time;durP1;ratioP1;P1;durP2;ratioP2;P2;SDS_P1;SDS_P2;PMS_P1;PMS_P2;Temp;Humidity;BMP_temperature;BMP_pressure;BME280_temperature;BME280_humidity;BME280_pressure;Samples;Min_cycle;Max_cycle;Signal;HPM_P1;HPM_P2
2023/06/19 04:07:04;;;;;;;;;9.25;7.00;;;;;;;;6482659;39;15015;-60
2023/06/19 04:13:08;;;;;;;;;7.50;7.50;;;;;;;;6492326;39;8918;-60
2023/06/19 04:19:13;;;;;;;;;7.75;7.75;;;;;;;;6492725;39;8909;-60
2023/06/19 04:25:18;;;;;;;;;7.00;7.00;;;;;;;;6492359;39;9632;-60
2023/06/19 04:31:23;;;;;;;;;8.33;8.33;;;;;;;;6491178;31;8926;-58
2023/06/19 04:37:25;;;;;;;;;8.00;8.00;;;;;;;;6492188;39;9030;-60
2023/06/19 04:43:29;;;;;;;;;10.00;10.00;;;;;;;;6492417;46;8886;-60
2023/06/19 04:49:32;;;;;;;;;9.50;9.50;;;;;;;;6492279;39;8879;-60
2023/06/19 04:55:34;;;;;;;;;11.00;11.00;;;;;;;;6492941;31;8957;-59
2023/06/19 05:01:40;;;;;;;;;12.00;12.00;;;;;;;;6491797;39;8898;-59
2023/06/19 05:07:46;;;;;;;;;12.25;11.50;;;;;;;;6491612;39;8839;-61
2023/06/19 05:13:51;;;;;;;;;13.25;12.50;;;;;;;;6491580;46;8921;-59
2023/06/19 05:19:54;;;;;;;;;11.00;10.75;;;;;;;;6491352;46;8902;-58
2023/06/19 05:25:57;;;;;;;;;10.75;9.00;;;;;;;;6492438;46;8916;-61
2023/06/19 05:32:01;;;;;;;;;12.00;11.50;;;;;;;;6491089;39;8944;-60
2023/06/19 05:38:05;;;;;;;;;9.25;9.25;;;;;;;;6492249;39;8862;-60
2023/06/19 05:44:16;;;;;;;;;10.75;8.75;;;;;;;;6491728;39;9053;-61
2023/06/19 05:50:19;;;;;;;;;9.25;8.75;;;;;;;;6490988;46;8960;-61
2023/06/19 05:56:26;;;;;;;;;7.50;7.00;;;;;;;;6491515;39;9070;-61
2023/06/19 06:02:30;;;;;;;;;9.25;9.25;;;;;;;;6488848;46;8948;-62
2023/06/19 06:08:32;;;;;;;;;8.00;8.00;;;;;;;;6307159;39;10001996;-61
2023/06/19 06:14:37;;;;;;;;;8.75;8.75;;;;;;;;6485356;31;8921;-62
2023/06/19 06:20:41;;;;;;;;;10.75;10.00;;;;;;;;6485242;39;9077;-61
2023/06/19 06:26:47;;;;;;;;;8.00;8.00;;;;;;;;6487541;39;8952;-61
2023/06/19 06:32:49;;;;;;;;;7.50;7.50;;;;;;;;6486638;31;8862;-62
2023/06/19 06:38:52;;;;;;;;;8.00;8.00;;;;;;;;6486332;39;8921;-61
2023/06/19 06:44:57;;;;;;;;;8.00;7.00;;;;;;;;8203573;31;8980;-59
2023/06/19 06:51:01;;;;;;;;;8.75;8.75;;;;;;;;6485291;39;9439;-61
2023/06/19 06:57:05;;;;;;;;;12.00;11.00;;;;;;;;6485320;31;8922;-62
2023/06/19 07:03:07;;;;;;;;;6.50;5.75;;;;;;;;6482390;39;9517;-60
2023/06/19 07:09:17;;;;;;;;;7.25;7.00;;;;;;;;6483713;31;8874;-61
2023/06/19 07:15:20;;;;;;;;;11.50;11.50;;;;;;;;6483500;47;8956;-60
2023/06/19 07:21:27;;;;;;;;;6.75;6.75;;;;;;;;6482607;39;8859;-59
2023/06/19 07:27:32;;;;;;;;;11.25;9.75;;;;;;;;6484644;39;9577;-61
2023/06/19 07:33:36;;;;;;;;;6.25;6.25;;;;;;;;6483333;46;8917;-63
2023/06/19 07:39:44;;;;;;;;;6.25;6.25;;;;;;;;6484910;46;8847;-61
2023/06/19 07:45:53;;;;;;;;;10.00;10.00;;;;;;;;6486316;46;8900;-60
2023/06/19 07:51:55;;;;;;;;;6.25;6.25;;;;;;;;6623651;36;9178;-63
2023/06/19 07:58:02;;;;;;;;;7.50;7.25;;;;;;;;6485732;31;8882;-59
2023/06/19 08:04:11;;;;;;;;;8.00;7.00;;;;;;;;6485370;39;8879;-61
2023/06/19 08:10:15;;;;;;;;;7.25;7.25;;;;;;;;6486755;39;8929;-60
2023/06/19 08:16:19;;;;;;;;;6.75;5.50;;;;;;;;6484722;46;8949;-62
2023/06/19 08:22:22;;;;;;;;;6.75;6.75;;;;;;;;6484655;46;9105;-59
2023/06/19 08:28:41;;;;;;;;;8.25;8.25;;;;;;;;6484675;39;8885;-74
2023/06/19 08:34:47;;;;;;;;;7.00;6.25;;;;;;;;6484540;39;8906;-60
2023/06/19 08:41:04;;;;;;;;;7.00;7.00;;;;;;;;6484094;46;8928;-62
2023/06/19 08:47:11;;;;;;;;;6.00;5.75;;;;;;;;6485258;39;9036;-63
2023/06/19 08:53:15;;;;;;;;;6.00;6.00;;;;;;;;6429440;31;9001;-60
2023/06/19 08:59:28;;;;;;;;;7.50;6.00;;;;;;;;6481411;39;8933;-58
2023/06/19 09:05:32;;;;;;;;;6.00;6.00;;;;;;;;6825478;36;9082;-58
2023/06/19 09:11:35;;;;;;;;;9.25;8.75;;;;;;;;6483704;39;8887;-58
2023/06/19 09:17:40;;;;;;;;;7.75;7.75;;;;;;;;6483404;31;8862;-63
2023/06/19 09:23:53;;;;;;;;;8.50;8.50;;;;;;;;6483675;39;9125;-63
2023/06/19 09:30:07;;;;;;;;;14.00;13.00;;;;;;;;6481472;31;8847;-64
2023/06/19 09:36:19;;;;;;;;;9.75;9.75;;;;;;;;6482911;39;8917;-64
2023/06/19 09:42:31;;;;;;;;;11.00;11.00;;;;;;;;6483536;39;9020;-63
2023/06/19 09:48:42;;;;;;;;;11.00;10.00;;;;;;;;6482733;46;8972;-63
2023/06/19 09:54:53;;;;;;;;;8.50;8.50;;;;;;;;6483147;46;8938;-65
2023/06/19 10:01:01;;;;;;;;;13.75;12.50;;;;;;;;6483041;39;8917;-65
2023/06/19 10:07:19;;;;;;;;;9.25;9.25;;;;;;;;6487838;39;9498;-62
2023/06/19 10:13:36;;;;;;;;;12.00;11.50;;;;;;;;6485523;39;8910;-66
2023/06/19 10:19:49;;;;;;;;;10.00;10.00;;;;;;;;6484570;31;8915;-65
2023/06/19 10:25:56;;;;;;;;;10.25;10.00;;;;;;;;6484633;31;8908;-64
2023/06/19 10:32:00;;;;;;;;;10.00;10.00;;;;;;;;6482678;31;8901;-65
2023/06/19 10:38:10;;;;;;;;;12.00;10.00;;;;;;;;6483578;46;9069;-62
2023/06/19 10:44:14;;;;;;;;;12.50;12.50;;;;;;;;6483016;31;9059;-64
2023/06/19 10:50:18;;;;;;;;;10.50;10.50;;;;;;;;6481013;46;8918;-63
2023/06/19 10:56:26;;;;;;;;;12.75;12.75;;;;;;;;7238293;36;8991;-63
2023/06/19 11:02:30;;;;;;;;;8.25;8.00;;;;;;;;6481685;46;8920;-64
2023/06/19 11:08:38;;;;;;;;;13.00;12.00;;;;;;;;6483280;39;8917;-62
2023/06/19 11:14:50;;;;;;;;;11.50;11.50;;;;;;;;6484170;31;8988;-63
2023/06/19 11:20:54;;;;;;;;;9.75;8.75;;;;;;;;6483185;39;8866;-64
2023/06/19 11:26:59;;;;;;;;;12.50;12.25;;;;;;;;6483261;39;8942;-63
2023/06/19 11:33:21;;;;;;;;;11.50;11.50;;;;;;;;6482613;31;8893;-64
2023/06/19 11:39:28;;;;;;;;;13.25;12.00;;;;;;;;6482581;47;8905;-61
2023/06/19 11:45:48;;;;;;;;;9.75;9.75;;;;;;;;6484263;39;8906;-63
2023/06/19 11:51:51;;;;;;;;;10.75;10.25;;;;;;;;6482077;39;8922;-64
2023/06/19 11:57:56;;;;;;;;;14.25;11.75;;;;;;;;6483242;47;9024;-65
2023/06/19 12:04:05;;;;;;;;;12.75;12.75;;;;;;;;6483878;31;9018;-63
2023/06/19 12:10:11;;;;;;;;;11.50;10.50;;;;;;;;6482865;39;8866;-62
2023/06/19 12:16:19;;;;;;;;;13.75;11.75;;;;;;;;6482882;39;9025;-62
2023/06/19 12:22:28;;;;;;;;;13.00;12.75;;;;;;;;6485417;46;8866;-63
2023/06/19 12:28:35;;;;;;;;;17.50;15.75;;;;;;;;6485584;39;8830;-63
2023/06/19 12:34:40;;;;;;;;;12.50;12.25;;;;;;;;6485486;46;8941;-65
2023/06/19 12:40:57;;;;;;;;;11.00;11.00;;;;;;;;6485875;31;8920;-62
2023/06/19 12:47:02;;;;;;;;;12.50;11.50;;;;;;;;6484494;31;8908;-62
2023/06/19 12:53:09;;;;;;;;;11.75;10.75;;;;;;;;6483740;31;8990;-63
2023/06/19 12:59:14;;;;;;;;;12.25;12.25;;;;;;;;6483227;39;9541;-67
2023/06/19 13:05:24;;;;;;;;;14.25;13.50;;;;;;;;6484719;39;8942;-63
2023/06/19 13:11:27;;;;;;;;;15.00;15.00;;;;;;;;6482967;31;8977;-64
2023/06/19 13:17:34;;;;;;;;;20.00;17.00;;;;;;;;6483839;39;8866;-62
2023/06/19 13:23:55;;;;;;;;;18.00;15.00;;;;;;;;6304650;39;10000977;-62
2023/06/19 13:30:02;;;;;;;;;19.75;19.75;;;;;;;;6484521;39;8978;-63
2023/06/19 13:36:06;;;;;;;;;18.50;18.50;;;;;;;;6486232;39;8902;-63
2023/06/19 13:42:12;;;;;;;;;12.75;12.75;;;;;;;;6486563;31;8886;-63
2023/06/19 13:48:32;;;;;;;;;16.75;15.25;;;;;;;;6484992;39;8878;-63
2023/06/19 13:54:35;;;;;;;;;17.50;15.50;;;;;;;;7693355;31;8962;-66
2023/06/19 14:00:41;;;;;;;;;16.75;16.25;;;;;;;;6486576;31;8894;-64
2023/06/19 14:06:45;;;;;;;;;17.25;17.25;;;;;;;;6486916;39;8945;-64
2023/06/19 14:12:48;;;;;;;;;18.00;16.25;;;;;;;;6486969;46;8910;-64
2023/06/19 14:19:08;;;;;;;;;15.50;11.50;;;;;;;;6487956;39;8874;-63
2023/06/19 14:25:17;;;;;;;;;10.75;10.75;;;;;;;;6488025;39;8874;-64
2023/06/19 14:31:21;;;;;;;;;14.25;11.75;;;;;;;;6487419;46;8890;-61
2023/06/19 14:37:25;;;;;;;;;12.00;11.25;;;;;;;;6487400;46;8910;-59
2023/06/19 14:43:28;;;;;;;;;23.25;23.25;;;;;;;;6486430;39;8898;-58
2023/06/19 14:49:40;;;;;;;;;10.25;10.25;;;;;;;;6487190;46;8886;-58
2023/06/19 14:55:45;;;;;;;;;9.00;8.50;;;;;;;;6487919;31;8937;-60
2023/06/19 15:01:48;;;;;;;;;10.00;10.00;;;;;;;;6487170;31;8881;-61
2023/06/19 15:07:50;;;;;;;;;11.00;10.75;;;;;;;;6487149;46;8843;-59
2023/06/19 15:13:53;;;;;;;;;9.25;9.25;;;;;;;;6487685;39;8874;-60
2023/06/19 15:19:57;;;;;;;;;12.75;11.50;;;;;;;;6487148;39;8870;-60
2023/06/19 15:26:02;;;;;;;;;10.25;9.25;;;;;;;;7237099;36;8881;-60
2023/06/19 15:32:05;;;;;;;;;13.00;12.50;;;;;;;;7415030;36;8942;-60
2023/06/19 15:38:09;;;;;;;;;11.75;10.00;;;;;;;;6486575;47;8905;-59
2023/06/19 15:44:33;;;;;;;;;13.75;13.75;;;;;;;;6486428;39;8878;-61
2023/06/19 15:50:43;;;;;;;;;12.50;12.25;;;;;;;;6487691;39;8940;-61
2023/06/19 15:56:50;;;;;;;;;13.00;13.00;;;;;;;;6490610;39;9609;-61
2023/06/19 16:02:53;;;;;;;;;17.00;14.25;;;;;;;;6487832;46;8937;-59
2023/06/19 16:08:56;;;;;;;;;15.75;14.00;;;;;;;;6489303;39;9529;-58
2023/06/19 16:15:01;;;;;;;;;24.00;22.33;;;;;;;;6487225;31;8895;-60
2023/06/19 16:21:09;;;;;;;;;18.50;16.75;;;;;;;;6487841;39;8854;-60
2023/06/19 16:27:13;;;;;;;;;16.25;13.75;;;;;;;;6488695;39;9613;-58
2023/06/19 16:33:17;;;;;;;;;23.75;20.75;;;;;;;;6489303;39;8858;-58
2023/06/19 16:39:19;;;;;;;;;14.00;13.00;;;;;;;;6487707;46;8970;-58
2023/06/19 16:45:26;;;;;;;;;18.75;17.00;;;;;;;;6489562;39;9505;-57
2023/06/19 16:51:28;;;;;;;;;13.50;12.50;;;;;;;;6489110;39;8957;-60
2023/06/19 16:57:36;;;;;;;;;18.50;17.25;;;;;;;;6487735;39;8948;-59
2023/06/19 17:03:44;;;;;;;;;12.25;12.25;;;;;;;;6486750;39;8870;-60
2023/06/19 17:09:54;;;;;;;;;14.50;13.75;;;;;;;;6487948;39;9093;-60
2023/06/19 17:15:58;;;;;;;;;20.25;20.25;;;;;;;;7103678;36;8913;-60
2023/06/19 17:22:03;;;;;;;;;15.50;14.50;;;;;;;;6487027;39;8917;-58
2023/06/19 17:28:08;;;;;;;;;13.25;12.75;;;;;;;;6487787;39;8874;-59
2023/06/19 17:34:14;;;;;;;;;11.25;11.25;;;;;;;;6488803;46;8966;-57
2023/06/19 17:40:18;;;;;;;;;12.25;12.25;;;;;;;;6487942;31;8904;-61
2023/06/19 17:46:21;;;;;;;;;10.50;10.50;;;;;;;;6488032;46;8886;-60
2023/06/19 17:52:25;;;;;;;;;16.00;14.25;;;;;;;;6487827;39;8994;-61
2023/06/19 17:58:32;;;;;;;;;11.75;10.50;;;;;;;;6489054;39;8906;-59
2023/06/19 18:04:35;;;;;;;;;13.25;12.00;;;;;;;;6487297;39;8830;-58
2023/06/19 18:10:39;;;;;;;;;13.00;12.50;;;;;;;;8124025;36;9998;-58
2023/06/19 18:16:45;;;;;;;;;16.50;16.25;;;;;;;;6488097;31;9621;-59
2023/06/19 18:22:56;;;;;;;;;11.50;10.25;;;;;;;;6487262;39;8886;-59
2023/06/19 18:29:00;;;;;;;;;12.25;12.25;;;;;;;;6487229;39;8913;-59
2023/06/19 18:35:05;;;;;;;;;12.75;12.50;;;;;;;;6487796;31;9483;-59
2023/06/19 18:41:07;;;;;;;;;17.00;17.00;;;;;;;;6488033;39;8910;-60
2023/06/19 18:47:11;;;;;;;;;17.33;17.33;;;;;;;;6488236;39;8906;-58
2023/06/19 18:53:14;;;;;;;;;14.33;12.67;;;;;;;;6486485;46;8910;-57
2023/06/19 18:59:17;;;;;;;;;13.00;11.25;;;;;;;;6488857;31;8916;-58
2023/06/19 19:05:23;;;;;;;;;13.75;12.50;;;;;;;;6486895;39;8914;-58
2023/06/19 19:11:26;;;;;;;;;11.33;11.33;;;;;;;;6487719;31;9584;-59
2023/06/19 19:17:33;;;;;;;;;12.33;12.33;;;;;;;;6488132;39;8937;-58
2023/06/19 19:23:37;;;;;;;;;14.67;13.67;;;;;;;;6489519;31;8952;-58
2023/06/19 19:29:40;;;;;;;;;9.00;9.00;;;;;;;;6488401;39;9000;-59
2023/06/19 19:35:45;;;;;;;;;13.00;13.00;;;;;;;;6489988;39;8946;-58
2023/06/19 19:41:53;;;;;;;;;15.33;12.33;;;;;;;;6489650;39;8985;-59
2023/06/19 19:47:58;;;;;;;;;8.00;7.25;;;;;;;;6535477;36;9012;-58
2023/06/19 19:54:05;;;;;;;;;10.25;10.25;;;;;;;;6488785;39;8914;-59
2023/06/19 20:00:09;;;;;;;;;9.25;9.25;;;;;;;;6488671;39;8863;-58
2023/06/19 20:06:18;;;;;;;;;9.67;8.00;;;;;;;;6487561;39;8894;-59
2023/06/19 20:12:21;;;;;;;;;12.00;11.00;;;;;;;;6488160;46;9025;-59
2023/06/19 20:18:28;;;;;;;;;9.67;9.67;;;;;;;;6489105;39;9571;-58
2023/06/19 20:24:32;;;;;;;;;8.50;8.00;;;;;;;;6488392;39;8870;-60
2023/06/19 20:30:37;;;;;;;;;12.75;11.25;;;;;;;;6487655;39;9436;-59
2023/06/19 20:36:41;;;;;;;;;9.25;9.25;;;;;;;;6486977;39;8862;-59
2023/06/19 20:42:43;;;;;;;;;10.00;10.00;;;;;;;;6487383;39;8922;-62
2023/06/19 20:48:50;;;;;;;;;9.25;9.25;;;;;;;;6488231;46;8964;-58
2023/06/19 20:54:57;;;;;;;;;11.33;9.67;;;;;;;;6487881;31;9048;-58
2023/06/19 21:01:08;;;;;;;;;11.67;9.67;;;;;;;;6487975;39;8870;-59
2023/06/19 21:07:13;;;;;;;;;11.50;10.50;;;;;;;;6487883;39;8908;-59
2023/06/19 21:13:17;;;;;;;;;10.00;9.25;;;;;;;;6488505;39;9541;-60
2023/06/19 21:19:25;;;;;;;;;12.00;10.00;;;;;;;;6487247;46;8886;-58
2023/06/19 21:25:34;;;;;;;;;15.33;15.00;;;;;;;;6487297;39;8890;-58
2023/06/19 21:31:41;;;;;;;;;15.67;14.00;;;;;;;;6852714;36;9008;-59
2023/06/19 21:37:45;;;;;;;;;14.25;13.75;;;;;;;;6486892;39;8919;-59
2023/06/19 21:43:52;;;;;;;;;12.00;12.00;;;;;;;;6486941;39;8882;-60
2023/06/19 21:49:55;;;;;;;;;13.25;12.25;;;;;;;;6486489;31;8894;-60
2023/06/19 21:55:58;;;;;;;;;12.75;10.25;;;;;;;;6487153;31;8960;-59
2023/06/19 22:02:01;;;;;;;;;13.50;11.25;;;;;;;;6488177;39;9941;-57
2023/06/19 22:08:05;;;;;;;;;8.50;8.50;;;;;;;;6486838;39;8893;-59
2023/06/19 22:14:10;;;;;;;;;13.25;11.75;;;;;;;;6486780;31;8965;-58
2023/06/19 22:20:19;;;;;;;;;14.00;11.75;;;;;;;;6486740;39;9541;-60
2023/06/19 22:26:21;;;;;;;;;13.00;11.67;;;;;;;;6486377;39;8976;-59
2023/06/19 22:32:25;;;;;;;;;13.67;11.00;;;;;;;;6486569;31;8932;-59
2023/06/19 22:38:29;;;;;;;;;16.67;15.00;;;;;;;;6484802;31;8929;-58
2023/06/19 22:44:32;;;;;;;;;13.00;13.00;;;;;;;;6486628;31;8960;-59
2023/06/19 22:50:38;;;;;;;;;13.33;12.00;;;;;;;;6486746;46;8893;-59
2023/06/19 22:56:43;;;;;;;;;15.67;13.67;;;;;;;;7975477;36;8934;-57
2023/06/19 23:02:46;;;;;;;;;11.33;9.67;;;;;;;;6670423;36;8961;-59
2023/06/19 23:08:49;;;;;;;;;9.50;9.50;;;;;;;;6487073;46;8878;-58
2023/06/19 23:14:52;;;;;;;;;12.67;12.67;;;;;;;;6485616;46;8881;-59
2023/06/19 23:20:56;;;;;;;;;15.33;15.33;;;;;;;;6487472;31;9632;-59
2023/06/19 23:26:58;;;;;;;;;16.33;14.33;;;;;;;;6486016;47;8882;-58
2023/06/19 23:33:04;;;;;;;;;14.50;14.50;;;;;;;;6486498;39;8927;-59
2023/06/19 23:39:10;;;;;;;;;14.67;13.67;;;;;;;;6485156;47;8917;-58
2023/06/19 23:45:16;;;;;;;;;14.33;14.33;;;;;;;;6485174;39;8969;-58
2023/06/19 23:51:21;;;;;;;;;15.33;15.00;;;;;;;;6486009;47;8859;-58
2023/06/19 23:57:25;;;;;;;;;14.67;14.67;;;;;;;;6485965;47;8938;-58
